Accueil
METAR-TAF:

METAR-TAF

Aéroports :

Meeker Airport

Meeker, Colorado, États-Unis

latitude: 40-02-32N, longitude: 107-53-23W, altitude: 1948 m

Observation

Le bulletin a été fait il y a 37 minutes, à 11:53 UTC
Vent 4 kt de nord/nord-est
Température -6°C
Humidité 79%
Pression 1013 hPa
Visibilité: 16.1 km
Nuages épars à une hauteur de 9000 ft

METAR: KEEO 041153Z AUTO 03004KT 10SM SCT090 M06/M09 A2991 RMK AO2 SLP137 T10611089 11033 21061 55001

Heure: 06:30 (12:30 UTC)


TAF: absent

Observations et prévisions météorologiques de plus de 4000 aéroports (messages METAR et TAF).

Les stations disponibles sont représentées par des disques jaunes et rouges sur la carte.

Passer la souris dessus pour voir le nom de la station.

Cliquer dessus pour voir les observations et prévisions météorologiques.

Pour changer de carte: cliquez sur les boutons verts avec une croix noire pour zoomer, sur le bouton vert avec un tiret pour effectuer un zoom arrière, ou sur les flèches vertes pour les cartes adjacentes.


METAR-TAF: